FMMI

Ivato International Airport

Airport
ICAO code
FMMI
IATA Code
TNR
Summary
ICAO Region
AFI
ICAO Territory
Location

Antananarivo, Antananarivo Province

Serving
Antananarivo
Elevation
4198 ft
Coordinates
18° 47' 47" S , 47° 28' 34" E
KCC
Cwb
Metar
Observation
FMMI 152100Z 12003KT 9999 FEW010 BKN020 12/12 Q1023 NOSIG
Station
Antananarivo / Ivato
Date/Time
2022-08-15 21:00:00
Wind direction
120°
Wind speed
03 kts
Lowest cloud amount
few clouds
Temperature
12°C
Dew point
12°C
Humidity
100%
QNH
1023 hPa
Weather condition
n/a

International airport 16 km north of Antananarivo, the capital city of Madagascar.

Climatology

Sub-tropical highland climate (Köppen climate classification Cwb)

Runways

Designator Length Width Surface Rops
11/29 3100 45 ASP Yes/Yes

Airport map

Aerial View

SKYbrary Partners:

Safety knowledge contributed by: